Reading Regional Carl A Spaatz Field Reading US
ICAO: KRDG
IATA: RDG
Category: Medium
Scheduled Services: Yes

Elevation: 344 ft
TransAlt. 18000 ft.

Airport Communications:
APP/DEP:125.15
ATIS:127.1
CTAF:119.9
GND:121.9
TWR:119.9
UNICOM:122.95

KRDG Zoom In..

If you have problems with the map follow the link
https://www.worldairports.se/pages/airport.php?
ICAO=KRDG

Runways:

(A) RW 13 length 6350 ft width 150 ft
ILS 110.55 / hdg 133

(B) RW 18 length 5151 ft width 150 ft
---- / hdg 184

(C) RW 31 length 6350 ft width 150 ft
---- / hdg 313

(D) RW 36 length 5151 ft width 150 ft
ILS 109.50 / hdg 4

Location; KRDG
Day. 12 / Time. 10.54 Zulu
* Altimeter: 30.67
* Temperature: -06° c. -21.2°f.
* Wind from: 000° Speed 00 kn.
Dewpoint: -09° c.
Visibility: 10 Statute Miles.
Clouds: Clear (automated report).

KRDG 121054Z 00000KT 10SM CLR M06/M09 A3067 RMK AO2 SLP394 T10561089


Wind - Calm.

 
 
jpsmedia worldairports.se 2019   terms of use